Time;durP1;ratioP1;P1;durP2;ratioP2;P2;SDS_P1;SDS_P2;PMS_P1;PMS_P2;Temp;Humidity;BMP_temperature;BMP_pressure;BME280_temperature;BME280_humidity;BME280_pressure;Samples;Min_cycle;Max_cycle;Signal;HPM_P1;HPM_P2
2022/03/24 00:02:17;;;;;;;14.07;8.43;;;;;;;;;;5034255;28;20111;-69
2022/03/24 00:04:43;;;;;;;12.07;8.75;;;;;;;;;;5032853;28;20044;-70
2022/03/24 00:07:10;;;;;;;12.02;8.15;;;;;;;;;;5037124;28;20076;-69
2022/03/24 00:09:36;;;;;;;10.55;8.02;;;;;;;;;;5038694;28;20112;-69
2022/03/24 00:12:02;;;;;;;17.15;9.07;;;;;;;;;;5038342;28;20104;-69
2022/03/24 00:14:28;;;;;;;13.30;8.77;;;;;;;;;;5040435;28;20053;-69
2022/03/24 00:16:54;;;;;;;9.80;7.60;;;;;;;;;;5035143;28;20037;-69
2022/03/24 00:19:22;;;;;;;12.20;8.52;;;;;;;;;;5039500;28;20041;-69
2022/03/24 00:21:48;;;;;;;11.93;8.35;;;;;;;;;;5040046;28;20035;-69
2022/03/24 00:24:14;;;;;;;10.40;7.78;;;;;;;;;;5033660;28;20025;-69
2022/03/24 00:26:41;;;;;;;10.70;8.02;;;;;;;;;;5043193;28;20036;-69
2022/03/24 00:29:09;;;;;;;13.25;8.10;;;;;;;;;;5037410;28;20075;-69
2022/03/24 00:31:35;;;;;;;14.10;8.77;;;;;;;;;;5036056;28;20051;-71
2022/03/24 00:34:02;;;;;;;12.18;8.38;;;;;;;;;;5043784;28;20032;-70
2022/03/24 00:36:28;;;;;;;10.70;7.70;;;;;;;;;;5037159;28;20029;-68
2022/03/24 00:38:55;;;;;;;12.13;8.02;;;;;;;;;;5034948;28;20046;-68
2022/03/24 00:41:21;;;;;;;10.40;7.95;;;;;;;;;;5038959;28;20438;-69
2022/03/24 00:43:50;;;;;;;10.48;7.75;;;;;;;;;;5039469;28;20030;-69
2022/03/24 00:46:23;;;;;;;9.57;8.02;;;;;;;;;;5040715;28;20477;-69
2022/03/24 00:48:52;;;;;;;10.23;7.53;;;;;;;;;;5043635;28;20020;-69
2022/03/24 00:51:19;;;;;;;10.90;6.97;;;;;;;;;;5037703;28;20414;-69
2022/03/24 00:53:45;;;;;;;11.98;7.05;;;;;;;;;;5034276;28;20017;-68
2022/03/24 00:56:11;;;;;;;10.15;7.20;;;;;;;;;;5037391;28;20062;-69
2022/03/24 00:58:38;;;;;;;9.30;7.15;;;;;;;;;;5037793;28;20040;-69
2022/03/24 01:01:06;;;;;;;9.82;7.07;;;;;;;;;;5037808;28;20048;-68
2022/03/24 01:03:32;;;;;;;11.70;7.72;;;;;;;;;;5036030;28;20017;-69
2022/03/24 01:05:58;;;;;;;9.75;6.93;;;;;;;;;;5038978;28;20074;-68
2022/03/24 01:08:24;;;;;;;10.10;7.03;;;;;;;;;;5039609;28;20057;-69
2022/03/24 01:10:51;;;;;;;9.48;6.45;;;;;;;;;;5038935;28;20030;-69
2022/03/24 01:13:21;;;;;;;11.07;6.80;;;;;;;;;;5041133;28;20037;-69
2022/03/24 01:15:47;;;;;;;8.18;6.07;;;;;;;;;;5037752;28;20073;-69
2022/03/24 01:18:14;;;;;;;10.77;7.03;;;;;;;;;;5038313;28;20029;-69
2022/03/24 01:20:43;;;;;;;8.85;6.22;;;;;;;;;;5043333;28;20047;-69
2022/03/24 01:23:11;;;;;;;11.48;7.20;;;;;;;;;;5039230;28;20067;-69
2022/03/24 01:25:37;;;;;;;11.82;7.10;;;;;;;;;;5039133;28;20040;-68
2022/03/24 01:28:03;;;;;;;8.63;6.70;;;;;;;;;;5035703;28;20044;-69
2022/03/24 01:30:29;;;;;;;10.63;6.53;;;;;;;;;;5040050;28;20043;-69
2022/03/24 01:32:55;;;;;;;9.25;6.53;;;;;;;;;;5040166;28;20658;-69
2022/03/24 01:35:23;;;;;;;9.45;6.97;;;;;;;;;;5037812;28;20037;-68
2022/03/24 01:37:49;;;;;;;10.60;7.00;;;;;;;;;;5038657;28;20029;-70
2022/03/24 01:40:16;;;;;;;9.38;6.43;;;;;;;;;;5034122;28;20017;-69
2022/03/24 01:42:43;;;;;;;10.45;7.45;;;;;;;;;;5033414;28;20041;-68
2022/03/24 01:45:10;;;;;;;9.23;6.78;;;;;;;;;;5037960;28;20026;-68
2022/03/24 01:47:36;;;;;;;9.52;7.10;;;;;;;;;;5040100;28;20466;-69
2022/03/24 01:50:04;;;;;;;10.38;6.50;;;;;;;;;;5043024;28;20486;-69
2022/03/24 01:52:30;;;;;;;10.15;7.03;;;;;;;;;;5037569;28;20024;-69
2022/03/24 01:54:57;;;;;;;8.93;7.25;;;;;;;;;;5037866;28;20099;-69
2022/03/24 01:57:25;;;;;;;9.60;7.22;;;;;;;;;;5042745;28;20594;-70
2022/03/24 01:59:51;;;;;;;10.38;7.30;;;;;;;;;;5040078;28;20033;-69
2022/03/24 02:02:18;;;;;;;12.63;7.45;;;;;;;;;;5040852;28;20110;-70
2022/03/24 02:04:45;;;;;;;7.93;6.70;;;;;;;;;;5041337;28;20535;-68
2022/03/24 02:07:11;;;;;;;12.18;7.63;;;;;;;;;;5040421;28;20038;-68
2022/03/24 02:09:38;;;;;;;9.57;6.85;;;;;;;;;;5041582;28;20033;-68
2022/03/24 02:12:05;;;;;;;10.05;7.53;;;;;;;;;;5044262;28;20144;-68
2022/03/24 02:14:31;;;;;;;11.48;7.25;;;;;;;;;;5042561;28;20045;-69
2022/03/24 02:16:57;;;;;;;10.70;7.80;;;;;;;;;;5041238;28;20029;-68
2022/03/24 02:19:25;;;;;;;10.80;7.05;;;;;;;;;;5038848;28;20504;-68
2022/03/24 02:21:52;;;;;;;11.57;7.00;;;;;;;;;;5041590;28;20367;-68
2022/03/24 02:24:20;;;;;;;10.18;7.25;;;;;;;;;;5043122;28;20032;-68
2022/03/24 02:26:47;;;;;;;10.38;7.38;;;;;;;;;;5041133;28;20029;-69
2022/03/24 02:29:15;;;;;;;10.93;7.82;;;;;;;;;;5043120;28;20143;-68
2022/03/24 02:31:43;;;;;;;11.05;7.78;;;;;;;;;;5038423;28;20061;-71
2022/03/24 02:36:55;;;;;;;9.68;7.30;;;;;;;;;;5038903;28;20036;-68
2022/03/24 02:39:22;;;;;;;10.48;7.68;;;;;;;;;;5044077;28;20033;-68
2022/03/24 02:41:51;;;;;;;11.02;7.85;;;;;;;;;;5041288;28;20033;-69
2022/03/24 02:44:17;;;;;;;10.85;7.75;;;;;;;;;;5039791;28;20025;-68
2022/03/24 02:46:47;;;;;;;12.50;8.50;;;;;;;;;;5042359;28;20025;-68
2022/03/24 02:49:14;;;;;;;13.82;8.98;;;;;;;;;;5044343;28;20029;-69
2022/03/24 02:51:40;;;;;;;15.50;8.80;;;;;;;;;;5042867;28;20025;-69
2022/03/24 02:54:07;;;;;;;10.77;7.78;;;;;;;;;;5035061;28;20025;-69
2022/03/24 02:56:34;;;;;;;11.00;8.25;;;;;;;;;;5041415;28;20476;-69
2022/03/24 02:59:00;;;;;;;10.95;8.07;;;;;;;;;;5039274;28;20678;-68
2022/03/24 03:01:26;;;;;;;10.27;7.80;;;;;;;;;;5043314;28;20661;-69
2022/03/24 03:03:53;;;;;;;11.60;7.38;;;;;;;;;;5038398;28;20045;-69
2022/03/24 03:06:19;;;;;;;12.68;7.28;;;;;;;;;;5039530;28;20473;-69
2022/03/24 03:08:46;;;;;;;12.10;7.63;;;;;;;;;;5039051;28;20039;-69
2022/03/24 03:11:12;;;;;;;9.10;7.20;;;;;;;;;;5037692;28;20032;-68
2022/03/24 03:13:39;;;;;;;10.75;7.13;;;;;;;;;;5039040;28;20052;-69
2022/03/24 03:16:05;;;;;;;10.70;7.47;;;;;;;;;;5042265;28;20071;-68
2022/03/24 03:18:32;;;;;;;13.60;7.43;;;;;;;;;;5040389;28;20033;-68
2022/03/24 03:20:59;;;;;;;10.75;7.30;;;;;;;;;;5039125;28;20032;-68
2022/03/24 03:23:26;;;;;;;12.43;8.50;;;;;;;;;;5040408;28;20028;-70
2022/03/24 03:25:52;;;;;;;9.77;7.45;;;;;;;;;;5042419;28;20025;-69
2022/03/24 03:28:18;;;;;;;10.15;6.95;;;;;;;;;;5038752;28;20044;-68
2022/03/24 03:30:45;;;;;;;11.57;7.05;;;;;;;;;;5040822;28;20032;-68
2022/03/24 03:33:12;;;;;;;11.35;7.47;;;;;;;;;;5039236;28;20143;-69
2022/03/24 03:35:38;;;;;;;10.18;7.38;;;;;;;;;;5032315;28;20037;-68
2022/03/24 03:38:04;;;;;;;11.40;7.65;;;;;;;;;;5035690;28;20874;-69
2022/03/24 03:40:31;;;;;;;10.77;7.60;;;;;;;;;;5037893;28;20036;-69
2022/03/24 03:42:57;;;;;;;12.18;7.43;;;;;;;;;;5030162;28;20033;-68
2022/03/24 03:45:24;;;;;;;12.23;8.32;;;;;;;;;;5034220;28;20478;-68
2022/03/24 03:47:50;;;;;;;15.23;8.13;;;;;;;;;;5036486;28;20035;-69
2022/03/24 03:50:16;;;;;;;11.40;8.43;;;;;;;;;;5036748;28;20782;-69
2022/03/24 03:52:42;;;;;;;12.05;7.50;;;;;;;;;;5032126;28;20642;-69
2022/03/24 03:55:10;;;;;;;13.95;8.15;;;;;;;;;;5036112;28;20527;-69
2022/03/24 03:57:36;;;;;;;11.43;7.60;;;;;;;;;;5031460;28;20068;-68
2022/03/24 04:00:52;;;;;;;10.63;7.68;;;;;;;;;;5036481;28;20127;-68
2022/03/24 04:02:51;;;;;;;11.32;7.32;;;;;;;;;;5034956;28;20524;-69
2022/03/24 04:05:23;;;;;;;9.70;7.25;;;;;;;;;;5035828;28;20033;-69
2022/03/24 04:07:50;;;;;;;10.50;7.07;;;;;;;;;;5030517;28;20017;-69
2022/03/24 04:10:16;;;;;;;10.82;7.50;;;;;;;;;;5034058;28;20711;-70
2022/03/24 04:12:43;;;;;;;10.98;7.22;;;;;;;;;;5032190;28;20496;-68
2022/03/24 04:15:10;;;;;;;10.35;7.10;;;;;;;;;;5038745;28;20049;-69
2022/03/24 04:17:37;;;;;;;10.75;7.82;;;;;;;;;;5030827;28;20053;-68
2022/03/24 04:20:03;;;;;;;10.32;7.43;;;;;;;;;;5032172;28;20029;-68
2022/03/24 04:22:30;;;;;;;9.30;7.45;;;;;;;;;;5028570;28;20041;-69
2022/03/24 04:24:56;;;;;;;9.85;7.07;;;;;;;;;;5029998;28;20021;-68
2022/03/24 04:27:22;;;;;;;8.98;6.88;;;;;;;;;;5033293;28;20382;-69
2022/03/24 04:29:49;;;;;;;8.57;6.90;;;;;;;;;;5029854;28;20018;-72
2022/03/24 04:32:16;;;;;;;10.70;7.10;;;;;;;;;;5031983;28;20032;-73
2022/03/24 04:34:42;;;;;;;10.68;7.43;;;;;;;;;;5029482;28;20120;-68
2022/03/24 04:37:09;;;;;;;9.05;7.07;;;;;;;;;;5030767;28;20099;-68
2022/03/24 04:39:35;;;;;;;9.73;7.20;;;;;;;;;;5026685;28;20026;-69
2022/03/24 04:42:01;;;;;;;10.98;7.28;;;;;;;;;;5030756;28;20063;-68
2022/03/24 04:44:27;;;;;;;8.80;6.50;;;;;;;;;;5029159;28;20037;-69
2022/03/24 04:46:53;;;;;;;12.48;6.65;;;;;;;;;;5028885;28;20575;-68
2022/03/24 04:49:19;;;;;;;9.77;6.38;;;;;;;;;;5031804;28;20094;-69
2022/03/24 04:51:45;;;;;;;9.75;7.57;;;;;;;;;;5026424;28;20083;-68
2022/03/24 04:54:11;;;;;;;11.55;7.03;;;;;;;;;;5029590;28;20029;-69
2022/03/24 04:56:38;;;;;;;11.32;6.95;;;;;;;;;;5035734;28;20033;-69
2022/03/24 04:59:04;;;;;;;11.43;7.07;;;;;;;;;;5029335;28;20116;-71
2022/03/24 05:01:30;;;;;;;9.80;6.85;;;;;;;;;;5027595;28;20045;-69
2022/03/24 05:03:56;;;;;;;9.02;6.90;;;;;;;;;;5029371;28;20033;-68
2022/03/24 05:06:23;;;;;;;11.10;6.90;;;;;;;;;;5028779;28;20038;-69
2022/03/24 05:08:50;;;;;;;10.57;6.95;;;;;;;;;;5027960;28;20056;-68
2022/03/24 05:11:16;;;;;;;9.85;7.35;;;;;;;;;;5026367;28;20084;-71
2022/03/24 05:13:45;;;;;;;9.45;7.25;;;;;;;;;;5030202;28;20032;-70
2022/03/24 05:16:11;;;;;;;10.13;7.28;;;;;;;;;;5033907;28;20659;-70
2022/03/24 05:18:38;;;;;;;9.70;7.03;;;;;;;;;;5027552;28;20250;-69
2022/03/24 05:21:04;;;;;;;11.13;7.43;;;;;;;;;;5030033;28;20055;-69
2022/03/24 05:23:31;;;;;;;11.25;7.20;;;;;;;;;;5029485;28;20034;-69
2022/03/24 05:25:58;;;;;;;10.90;7.28;;;;;;;;;;5026771;28;20030;-70
2022/03/24 05:28:25;;;;;;;10.13;7.60;;;;;;;;;;5033748;28;20056;-69
2022/03/24 05:30:51;;;;;;;11.98;7.80;;;;;;;;;;5034850;28;20032;-69
2022/03/24 05:33:17;;;;;;;11.48;7.97;;;;;;;;;;5032743;28;20036;-68
2022/03/24 05:35:43;;;;;;;8.52;7.15;;;;;;;;;;5030646;28;20111;-69
2022/03/24 05:38:10;;;;;;;8.82;7.20;;;;;;;;;;5032761;28;20033;-69
2022/03/24 05:40:36;;;;;;;9.90;7.07;;;;;;;;;;5031826;28;20033;-68
2022/03/24 05:43:03;;;;;;;9.60;7.00;;;;;;;;;;5033017;28;20044;-68
2022/03/24 05:45:29;;;;;;;9.00;6.75;;;;;;;;;;5033630;28;20032;-71
2022/03/24 05:47:55;;;;;;;9.50;7.15;;;;;;;;;;5034535;28;20096;-68
2022/03/24 05:50:21;;;;;;;9.40;7.13;;;;;;;;;;5030219;28;20195;-69
2022/03/24 05:52:49;;;;;;;10.23;7.28;;;;;;;;;;5030878;28;20080;-69
2022/03/24 05:55:16;;;;;;;11.20;7.10;;;;;;;;;;5033530;28;20036;-69
2022/03/24 05:57:43;;;;;;;10.52;8.18;;;;;;;;;;5034077;28;20028;-69
2022/03/24 06:00:09;;;;;;;13.70;9.70;;;;;;;;;;5031497;28;20041;-69
2022/03/24 06:02:35;;;;;;;16.60;8.85;;;;;;;;;;5032495;28;20045;-69
2022/03/24 06:05:01;;;;;;;13.35;8.95;;;;;;;;;;5033615;28;20035;-69
2022/03/24 06:07:28;;;;;;;12.40;9.55;;;;;;;;;;5030654;28;20029;-69
2022/03/24 06:09:54;;;;;;;13.45;9.90;;;;;;;;;;5032054;28;20033;-68
2022/03/24 06:12:21;;;;;;;11.10;8.55;;;;;;;;;;5033191;28;20029;-69
2022/03/24 06:14:47;;;;;;;11.05;9.27;;;;;;;;;;5032755;28;20073;-68
2022/03/24 06:17:13;;;;;;;15.15;9.93;;;;;;;;;;5030491;28;20048;-68
2022/03/24 06:19:40;;;;;;;11.10;9.13;;;;;;;;;;5032917;28;20094;-68
2022/03/24 06:22:07;;;;;;;10.40;8.48;;;;;;;;;;5033113;28;20041;-69
2022/03/24 06:24:34;;;;;;;14.45;9.77;;;;;;;;;;5033581;28;20021;-70
2022/03/24 06:27:01;;;;;;;19.02;9.93;;;;;;;;;;5035920;28;20029;-71
2022/03/24 06:29:27;;;;;;;10.18;8.50;;;;;;;;;;5037904;28;20116;-71
2022/03/24 06:31:53;;;;;;;13.55;10.57;;;;;;;;;;5035040;28;20096;-72
2022/03/24 06:34:19;;;;;;;12.13;9.70;;;;;;;;;;5030586;28;20206;-72
2022/03/24 06:36:45;;;;;;;12.70;10.00;;;;;;;;;;5036283;28;20033;-71
2022/03/24 06:39:12;;;;;;;13.90;9.45;;;;;;;;;;5034966;28;20481;-72
2022/03/24 06:41:38;;;;;;;14.77;10.80;;;;;;;;;;5038384;28;20049;-72
2022/03/24 06:44:06;;;;;;;15.40;10.65;;;;;;;;;;5032998;28;20048;-72
2022/03/24 06:46:33;;;;;;;12.18;9.57;;;;;;;;;;5033152;28;20021;-71
2022/03/24 06:49:03;;;;;;;14.02;10.32;;;;;;;;;;5032628;28;20494;-71
2022/03/24 06:51:30;;;;;;;16.58;10.98;;;;;;;;;;5034953;28;20082;-73
2022/03/24 06:53:56;;;;;;;12.43;10.27;;;;;;;;;;5034934;28;20034;-73
2022/03/24 06:56:22;;;;;;;13.05;10.80;;;;;;;;;;5037082;28;20025;-72
2022/03/24 06:58:49;;;;;;;44.55;11.73;;;;;;;;;;5033430;28;20504;-73
2022/03/24 07:01:15;;;;;;;13.52;9.70;;;;;;;;;;5034830;28;20037;-72
2022/03/24 07:03:42;;;;;;;13.57;10.20;;;;;;;;;;5034141;28;20074;-72
2022/03/24 07:06:08;;;;;;;15.05;10.75;;;;;;;;;;5032526;28;20029;-71
2022/03/24 07:08:35;;;;;;;11.15;9.50;;;;;;;;;;5031413;28;20371;-71
2022/03/24 07:11:02;;;;;;;15.93;10.32;;;;;;;;;;5033323;28;20029;-71
2022/03/24 07:13:28;;;;;;;12.73;9.45;;;;;;;;;;5031853;28;20029;-70
2022/03/24 07:15:54;;;;;;;13.43;8.82;;;;;;;;;;5034626;28;20077;-71
2022/03/24 07:18:20;;;;;;;11.55;9.27;;;;;;;;;;5034072;28;20116;-71
2022/03/24 07:20:47;;;;;;;16.85;9.52;;;;;;;;;;5035463;28;20026;-71
2022/03/24 07:23:13;;;;;;;13.70;9.80;;;;;;;;;;5031274;28;20040;-72
2022/03/24 07:25:42;;;;;;;11.88;9.10;;;;;;;;;;5036557;28;20017;-71
2022/03/24 07:28:11;;;;;;;11.38;8.63;;;;;;;;;;5032815;28;20397;-73
2022/03/24 07:30:37;;;;;;;12.60;9.30;;;;;;;;;;5034506;28;20018;-72
2022/03/24 07:33:04;;;;;;;12.48;8.43;;;;;;;;;;5031548;28;20029;-71
2022/03/24 07:35:31;;;;;;;11.43;9.00;;;;;;;;;;5029493;28;20746;-71
2022/03/24 07:37:58;;;;;;;13.35;9.23;;;;;;;;;;5027996;28;20029;-72
2022/03/24 07:40:24;;;;;;;11.45;9.35;;;;;;;;;;5030237;28;20553;-72
2022/03/24 07:42:57;;;;;;;12.27;9.95;;;;;;;;;;5031738;28;20033;-73
2022/03/24 07:45:24;;;;;;;11.73;9.55;;;;;;;;;;5034598;28;20036;-70
2022/03/24 07:48:06;;;;;;;11.13;9.05;;;;;;;;;;5032915;28;20028;-70
2022/03/24 07:50:32;;;;;;;13.48;8.93;;;;;;;;;;5039749;28;20122;-70
2022/03/24 07:53:06;;;;;;;13.05;8.98;;;;;;;;;;5036101;28;20044;-69
2022/03/24 07:55:32;;;;;;;16.60;9.57;;;;;;;;;;5033633;28;20029;-72
2022/03/24 07:57:58;;;;;;;10.98;8.93;;;;;;;;;;5031878;28;20033;-71
2022/03/24 08:00:25;;;;;;;11.95;9.32;;;;;;;;;;5032574;28;20025;-70
2022/03/24 08:02:52;;;;;;;11.15;8.48;;;;;;;;;;5031322;28;20517;-70
2022/03/24 08:05:18;;;;;;;12.70;8.85;;;;;;;;;;5031309;28;20233;-70
2022/03/24 08:07:44;;;;;;;11.68;8.82;;;;;;;;;;5033096;28;20469;-70
2022/03/24 08:10:11;;;;;;;16.05;10.07;;;;;;;;;;5030814;28;20458;-70
2022/03/24 08:12:37;;;;;;;16.48;9.20;;;;;;;;;;5033251;28;20047;-70
2022/03/24 08:15:03;;;;;;;11.10;9.38;;;;;;;;;;5029291;28;20049;-71
2022/03/24 08:17:29;;;;;;;11.63;9.23;;;;;;;;;;5029861;28;20490;-70
2022/03/24 08:19:55;;;;;;;12.32;9.63;;;;;;;;;;5032556;28;20066;-70
2022/03/24 08:22:22;;;;;;;13.77;10.63;;;;;;;;;;5028243;28;20045;-70
2022/03/24 08:24:48;;;;;;;14.88;10.55;;;;;;;;;;5031110;28;20477;-72
2022/03/24 08:27:14;;;;;;;13.85;10.60;;;;;;;;;;5030128;28;20592;-71
2022/03/24 08:29:40;;;;;;;13.73;10.60;;;;;;;;;;5030385;28;20026;-70
2022/03/24 08:32:07;;;;;;;15.38;10.13;;;;;;;;;;5033258;28;20440;-70
2022/03/24 08:34:33;;;;;;;15.45;9.98;;;;;;;;;;5029854;28;20017;-70
2022/03/24 08:36:59;;;;;;;14.85;11.38;;;;;;;;;;5031904;28;20044;-70
2022/03/24 08:39:25;;;;;;;13.80;11.65;;;;;;;;;;5033108;28;20067;-71
2022/03/24 08:41:53;;;;;;;16.08;11.13;;;;;;;;;;5029404;28;20098;-71
2022/03/24 08:44:19;;;;;;;13.30;10.90;;;;;;;;;;5030233;28;20022;-71
2022/03/24 08:46:45;;;;;;;19.65;11.77;;;;;;;;;;5031311;28;20064;-72
2022/03/24 08:49:12;;;;;;;12.85;9.10;;;;;;;;;;5033228;28;20021;-71
2022/03/24 08:51:38;;;;;;;14.23;10.30;;;;;;;;;;5030136;28;20109;-71
2022/03/24 08:54:05;;;;;;;12.00;9.82;;;;;;;;;;5030375;28;20029;-71
2022/03/24 08:56:32;;;;;;;14.00;11.25;;;;;;;;;;5032266;28;20017;-71
2022/03/24 08:58:58;;;;;;;13.43;9.70;;;;;;;;;;5029698;28;20060;-70
2022/03/24 09:01:24;;;;;;;15.05;11.18;;;;;;;;;;5033088;28;20029;-71
2022/03/24 09:03:51;;;;;;;13.35;10.13;;;;;;;;;;5034595;28;20642;-71
2022/03/24 09:06:18;;;;;;;13.10;9.48;;;;;;;;;;5035064;28;20075;-71
2022/03/24 09:08:44;;;;;;;11.68;9.95;;;;;;;;;;5035676;28;20025;-70
2022/03/24 09:11:10;;;;;;;12.52;10.48;;;;;;;;;;5034356;28;20053;-71
2022/03/24 09:13:37;;;;;;;13.82;10.38;;;;;;;;;;5035822;28;20025;-71
2022/03/24 09:16:05;;;;;;;13.75;10.90;;;;;;;;;;5036029;28;20110;-71
2022/03/24 09:18:31;;;;;;;15.73;10.52;;;;;;;;;;5034206;28;20493;-71
2022/03/24 09:20:57;;;;;;;12.63;9.57;;;;;;;;;;5034948;28;20025;-71
2022/03/24 09:23:24;;;;;;;13.40;10.70;;;;;;;;;;5042950;28;20037;-71
2022/03/24 09:25:50;;;;;;;17.27;11.05;;;;;;;;;;5034692;28;20025;-73
2022/03/24 09:28:17;;;;;;;11.00;8.45;;;;;;;;;;5036728;28;20037;-71
2022/03/24 09:30:43;;;;;;;12.23;9.38;;;;;;;;;;5034441;28;20466;-71
2022/03/24 09:33:09;;;;;;;11.75;9.35;;;;;;;;;;5033628;28;20074;-73
2022/03/24 09:35:36;;;;;;;22.02;10.82;;;;;;;;;;5036267;28;20113;-70
2022/03/24 09:38:02;;;;;;;12.43;9.50;;;;;;;;;;5033582;28;20105;-70
2022/03/24 09:40:29;;;;;;;14.20;8.95;;;;;;;;;;5034346;28;20097;-71
2022/03/24 09:42:56;;;;;;;14.77;9.30;;;;;;;;;;5034663;28;20036;-72
2022/03/24 09:45:22;;;;;;;12.57;8.90;;;;;;;;;;5034447;28;20029;-71
2022/03/24 09:47:49;;;;;;;11.70;9.35;;;;;;;;;;5032883;28;20037;-72
2022/03/24 09:50:15;;;;;;;15.18;9.77;;;;;;;;;;5032717;28;20025;-73
2022/03/24 09:52:41;;;;;;;16.83;10.20;;;;;;;;;;5034915;28;20510;-72
2022/03/24 09:55:08;;;;;;;13.15;8.80;;;;;;;;;;5035892;28;20102;-72
2022/03/24 09:57:35;;;;;;;15.70;9.57;;;;;;;;;;5032011;28;20032;-72
2022/03/24 10:00:02;;;;;;;13.45;9.13;;;;;;;;;;5035427;28;20351;-74
2022/03/24 10:02:29;;;;;;;12.20;9.27;;;;;;;;;;5034793;28;20042;-74
2022/03/24 10:05:01;;;;;;;17.85;9.95;;;;;;;;;;5034038;28;20033;-70
2022/03/24 10:07:29;;;;;;;49.08;12.55;;;;;;;;;;5033736;28;20159;-71
2022/03/24 10:09:56;;;;;;;22.35;9.98;;;;;;;;;;5034365;28;20032;-71
2022/03/24 10:12:33;;;;;;;15.88;10.45;;;;;;;;;;5033957;28;20108;-71
2022/03/24 10:15:12;;;;;;;13.85;10.95;;;;;;;;;;5033451;28;20064;-71
2022/03/24 10:17:39;;;;;;;13.75;9.02;;;;;;;;;;5033065;28;20033;-71
2022/03/24 10:20:14;;;;;;;17.55;10.07;;;;;;;;;;5034734;28;20029;-71
2022/03/24 10:22:52;;;;;;;12.45;10.75;;;;;;;;;;5034384;28;20033;-71
2022/03/24 10:25:26;;;;;;;12.20;9.85;;;;;;;;;;5034986;28;20041;-70
2022/03/24 10:28:12;;;;;;;12.68;10.32;;;;;;;;;;5032725;28;20034;-71
2022/03/24 10:30:52;;;;;;;13.43;9.38;;;;;;;;;;5032601;28;20033;-71
2022/03/24 10:33:27;;;;;;;20.42;10.25;;;;;;;;;;5033178;28;20029;-70
2022/03/24 10:36:05;;;;;;;13.30;10.05;;;;;;;;;;5032214;28;20041;-71
2022/03/24 10:38:32;;;;;;;12.27;9.32;;;;;;;;;;5032542;28;20032;-71
2022/03/24 10:41:11;;;;;;;12.52;8.77;;;;;;;;;;5034262;28;20086;-71
2022/03/24 10:43:37;;;;;;;15.23;10.70;;;;;;;;;;5035059;28;20033;-71
2022/03/24 10:46:12;;;;;;;11.32;9.52;;;;;;;;;;5033149;28;20026;-71
2022/03/24 10:48:38;;;;;;;10.77;9.23;;;;;;;;;;5029946;28;20183;-70
2022/03/24 10:51:04;;;;;;;12.18;9.77;;;;;;;;;;5035370;28;20025;-71
2022/03/24 10:53:38;;;;;;;13.05;10.30;;;;;;;;;;5040511;28;20029;-70
2022/03/24 10:56:07;;;;;;;12.05;10.13;;;;;;;;;;5032880;28;20477;-71
2022/03/24 10:58:38;;;;;;;13.10;9.73;;;;;;;;;;5031143;28;20029;-71
2022/03/24 11:01:08;;;;;;;14.63;10.88;;;;;;;;;;5033073;28;20024;-71
2022/03/24 11:03:35;;;;;;;14.40;10.77;;;;;;;;;;5035368;28;20113;-71
2022/03/24 11:06:22;;;;;;;12.60;9.65;;;;;;;;;;5032443;28;20025;-71
2022/03/24 11:08:52;;;;;;;10.23;8.80;;;;;;;;;;5032369;28;20032;-71
2022/03/24 11:11:19;;;;;;;11.60;10.00;;;;;;;;;;5031551;28;20037;-71
2022/03/24 11:13:47;;;;;;;14.55;10.40;;;;;;;;;;5034839;28;20024;-71
2022/03/24 11:16:13;;;;;;;14.00;10.13;;;;;;;;;;5032193;28;20037;-71
2022/03/24 11:18:40;;;;;;;11.50;9.50;;;;;;;;;;5033428;28;20025;-71
2022/03/24 11:21:09;;;;;;;11.93;8.82;;;;;;;;;;5033881;28;20032;-71
2022/03/24 11:23:39;;;;;;;11.45;9.20;;;;;;;;;;5030502;28;20061;-73
2022/03/24 11:26:05;;;;;;;12.90;9.55;;;;;;;;;;5034050;28;20021;-71
2022/03/24 11:28:35;;;;;;;12.43;8.82;;;;;;;;;;5033778;28;20111;-71
2022/03/24 11:31:08;;;;;;;10.98;9.18;;;;;;;;;;5031665;28;20053;-71
2022/03/24 11:33:37;;;;;;;13.25;8.65;;;;;;;;;;5031410;28;20028;-71
2022/03/24 11:36:04;;;;;;;12.52;8.73;;;;;;;;;;5034593;28;20014;-71
2022/03/24 11:38:30;;;;;;;10.88;8.93;;;;;;;;;;5031588;28;20026;-71
2022/03/24 11:41:00;;;;;;;10.68;8.43;;;;;;;;;;5033687;28;20025;-72
2022/03/24 11:43:27;;;;;;;10.27;8.07;;;;;;;;;;5033565;28;20053;-71
2022/03/24 11:46:02;;;;;;;9.77;7.57;;;;;;;;;;5031534;28;20029;-73
2022/03/24 11:48:36;;;;;;;10.10;8.32;;;;;;;;;;5031368;28;20040;-71
2022/03/24 11:51:06;;;;;;;15.85;8.05;;;;;;;;;;5034214;28;20024;-72
2022/03/24 11:53:32;;;;;;;10.27;7.95;;;;;;;;;;5032460;28;20630;-71
2022/03/24 11:56:04;;;;;;;10.98;8.38;;;;;;;;;;5030384;28;20082;-71
2022/03/24 11:58:30;;;;;;;8.95;7.43;;;;;;;;;;5031202;28;20079;-72
2022/03/24 12:00:56;;;;;;;12.07;8.98;;;;;;;;;;5033571;28;20025;-71
2022/03/24 12:03:42;;;;;;;10.05;7.68;;;;;;;;;;5031668;28;20033;-72
2022/03/24 12:06:09;;;;;;;9.65;8.10;;;;;;;;;;5032702;28;20029;-71
2022/03/24 12:08:45;;;;;;;11.75;7.80;;;;;;;;;;5030887;28;20025;-71
2022/03/24 12:11:30;;;;;;;13.55;8.05;;;;;;;;;;5032218;28;20056;-71
2022/03/24 12:13:56;;;;;;;11.35;8.85;;;;;;;;;;5031403;28;20025;-72
2022/03/24 12:16:25;;;;;;;11.02;9.27;;;;;;;;;;5032325;28;20032;-71
2022/03/24 12:18:52;;;;;;;15.27;8.77;;;;;;;;;;5032333;28;20511;-71
2022/03/24 12:21:21;;;;;;;12.57;9.25;;;;;;;;;;5031262;28;20029;-71
2022/03/24 12:24:03;;;;;;;13.65;10.13;;;;;;;;;;5032337;28;20503;-71
2022/03/24 12:26:30;;;;;;;11.25;9.25;;;;;;;;;;5030188;28;20030;-71
2022/03/24 12:29:11;;;;;;;11.25;9.43;;;;;;;;;;5031909;28;20037;-71
2022/03/24 12:31:56;;;;;;;10.38;8.70;;;;;;;;;;5031692;28;20552;-72
2022/03/24 12:34:23;;;;;;;11.02;8.90;;;;;;;;;;5031399;28;20033;-72
2022/03/24 12:36:49;;;;;;;11.82;9.30;;;;;;;;;;5030278;28;20208;-71
2022/03/24 12:39:35;;;;;;;13.02;9.02;;;;;;;;;;5031707;28;20025;-72
2022/03/24 12:42:08;;;;;;;13.20;9.48;;;;;;;;;;5032703;28;20033;-72
2022/03/24 12:44:53;;;;;;;12.95;8.50;;;;;;;;;;5034001;28;20777;-75
2022/03/24 12:47:37;;;;;;;10.82;8.60;;;;;;;;;;5030468;28;20032;-73
2022/03/24 12:50:24;;;;;;;11.88;8.40;;;;;;;;;;5032671;28;20125;-73
2022/03/24 12:52:50;;;;;;;12.70;8.75;;;;;;;;;;5030005;28;20049;-72
2022/03/24 12:55:21;;;;;;;18.58;9.35;;;;;;;;;;5032547;28;20068;-72
2022/03/24 12:58:14;;;;;;;14.00;9.60;;;;;;;;;;5040207;28;20452;-71
2022/03/24 13:00:44;;;;;;;10.63;8.55;;;;;;;;;;5031750;28;20073;-75
2022/03/24 13:03:11;;;;;;;12.23;8.82;;;;;;;;;;5032843;28;20885;-72
2022/03/24 13:05:38;;;;;;;9.93;8.25;;;;;;;;;;5034198;28;20052;-71
2022/03/24 13:08:05;;;;;;;10.25;8.38;;;;;;;;;;5035272;28;20098;-72
2022/03/24 13:10:35;;;;;;;9.52;8.13;;;;;;;;;;5033143;28;20055;-71
2022/03/24 13:13:02;;;;;;;9.55;7.75;;;;;;;;;;5032841;28;20033;-72
2022/03/24 13:15:33;;;;;;;10.07;7.63;;;;;;;;;;5035732;28;20639;-73
2022/03/24 13:18:03;;;;;;;16.70;7.82;;;;;;;;;;5026344;28;20025;-71
2022/03/24 13:20:34;;;;;;;14.70;8.68;;;;;;;;;;5039161;28;20461;-72
2022/03/24 13:23:03;;;;;;;10.75;8.52;;;;;;;;;;5034204;28;20037;-72
2022/03/24 13:25:29;;;;;;;11.18;7.25;;;;;;;;;;5031758;28;20489;-71
2022/03/24 13:27:56;;;;;;;9.10;7.25;;;;;;;;;;5041961;28;20455;-72
2022/03/24 13:30:24;;;;;;;9.43;7.20;;;;;;;;;;5037048;28;20476;-71
2022/03/24 13:32:52;;;;;;;8.13;6.88;;;;;;;;;;5036981;28;20021;-71
2022/03/24 13:35:21;;;;;;;9.88;7.07;;;;;;;;;;5034101;28;20067;-71
2022/03/24 13:37:50;;;;;;;10.90;7.43;;;;;;;;;;5030287;28;20029;-70
2022/03/24 13:40:17;;;;;;;17.75;8.07;;;;;;;;;;5032466;28;20032;-71
2022/03/24 13:42:45;;;;;;;21.00;8.77;;;;;;;;;;5031057;28;20032;-71
2022/03/24 13:45:11;;;;;;;18.55;8.23;;;;;;;;;;5032966;28;20112;-74
2022/03/24 13:47:45;;;;;;;17.63;7.35;;;;;;;;;;5034128;28;20042;-72
2022/03/24 13:50:16;;;;;;;31.30;7.22;;;;;;;;;;5033292;28;20025;-72
2022/03/24 13:52:46;;;;;;;14.82;8.07;;;;;;;;;;5038035;28;20074;-73
2022/03/24 13:55:12;;;;;;;14.80;6.97;;;;;;;;;;5036601;28;20039;-77
2022/03/24 13:57:52;;;;;;;13.00;7.47;;;;;;;;;;5036133;28;20056;-76
2022/03/24 14:00:27;;;;;;;13.05;7.75;;;;;;;;;;5037473;28;20477;-75
2022/03/24 14:02:56;;;;;;;21.60;9.48;;;;;;;;;;5034751;28;20108;-74
2022/03/24 14:05:23;;;;;;;68.10;20.67;;;;;;;;;;5038187;28;20036;-76
2022/03/24 14:07:59;;;;;;;26.55;13.23;;;;;;;;;;5037980;28;20036;-74
2022/03/24 14:10:44;;;;;;;10.32;7.40;;;;;;;;;;5034953;28;20021;-75
2022/03/24 14:13:14;;;;;;;9.93;7.60;;;;;;;;;;5037672;28;20129;-73
2022/03/24 14:15:41;;;;;;;15.18;8.15;;;;;;;;;;5033805;28;20044;-74
2022/03/24 14:18:36;;;;;;;10.20;7.32;;;;;;;;;;5033808;28;20619;-73
2022/03/24 14:21:03;;;;;;;12.15;7.50;;;;;;;;;;5036016;28;20043;-77
2022/03/24 14:23:36;;;;;;;9.45;7.07;;;;;;;;;;5039841;28;20041;-75
2022/03/24 14:26:12;;;;;;;10.25;6.80;;;;;;;;;;5039894;28;20021;-75
2022/03/24 14:28:40;;;;;;;9.55;7.10;;;;;;;;;;5035406;28;20125;-73
2022/03/24 14:31:16;;;;;;;10.43;7.40;;;;;;;;;;5035250;28;20022;-73
2022/03/24 14:33:53;;;;;;;7.82;6.97;;;;;;;;;;5035000;28;20030;-73
2022/03/24 14:36:20;;;;;;;44.75;15.18;;;;;;;;;;5040657;28;20555;-74
2022/03/24 14:39:04;;;;;;;16.67;10.52;;;;;;;;;;5033198;28;20103;-74
2022/03/24 14:41:31;;;;;;;12.52;8.40;;;;;;;;;;5033818;28;20109;-76